CST,Max TemperatureF,Mean TemperatureF,Min TemperatureF,Max Dew PointF,MeanDew PointF,Min DewpointF,Max Humidity, Mean Humidity, Min Humidity, Max Sea Level PressureIn, Mean Sea Level PressureIn, Min Sea Level PressureIn, Max VisibilityMiles, Mean VisibilityMiles, Min VisibilityMiles, Max Wind SpeedMPH, Mean Wind SpeedMPH, Max Gust SpeedMPH,PrecipitationIn, CloudCover, Events, WindDirDegrees
2012-12-1,60,48,35,46,39,30,100,76,51,29.93,29.85,29.79,10,6,0,10,5,13,0.00,2,Fog,205
2012-12-2,68,50,31,41,34,28,85,56,27,30.03,29.89,29.66,10,10,10,16,7,24,0.00,0,,188
2012-12-3,59,44,29,41,31,18,100,67,33,30.14,29.79,29.56,10,6,0,12,12,13,0.00,0,Fog,289
2012-12-4,59,42,25,23,19,16,68,46,23,30.33,30.26,30.16,10,10,10,14,5,16,0.00,0,,230
2012-12-5,59,46,33,21,19,18,56,39,21,30.25,30.03,29.85,10,10,2,26,12,40,0.00,0,,184
2012-12-6,51,40,29,29,21,15,61,44,26,30.03,29.93,29.81,10,10,10,25,12,32,T,3,,1
2012-12-7,45,32,19,28,23,16,84,67,49,30.03,29.96,29.88,10,10,7,15,5,20,0.00,2,,289
2012-12-8,35,28,21,31,26,19,100,91,82,30.03,29.93,29.79,7,5,3,16,6,18,0.00,6,,146
2012-12-9,37,23,8,32,10,1,89,68,47,30.29,30.09,29.87,10,10,8,35,22,41,0.00,4,,320
2012-12-10,36,19,1,8,3,-4,87,58,29,30.25,30.07,29.92,10,10,10,18,7,28,0.00,1,,260
2012-12-11,44,30,15,21,13,10,84,56,27,30.09,30.02,29.98,10,10,10,21,9,25,0.00,1,,233
2012-12-12,52,39,25,16,14,12,60,41,21,29.97,29.93,29.87,10,10,10,22,12,33,0.00,0,,191
2012-12-13,54,38,21,22,18,14,77,53,28,30.08,30.02,29.93,10,10,9,10,5,15,0.00,0,,132
2012-12-14,50,33,15,43,31,12,92,71,50,30.01,29.77,29.47,10,9,3,18,7,23,0.14,4,Rain,146
2012-12-15,44,38,32,43,38,28,100,85,70,29.77,29.54,29.41,10,6,0,23,9,29,0.39,7,Fog-Rain,324
2012-12-16,38,32,26,28,25,21,92,76,59,29.83,29.79,29.73,10,10,5,15,6,18,T,5,Snow,353
2012-12-17,44,34,24,28,25,21,92,71,49,29.78,29.69,29.51,10,10,10,13,8,17,0.00,1,,226
2012-12-18,51,39,27,27,25,22,78,54,30,29.83,29.70,29.52,10,10,10,23,10,29,0.00,0,,294
2012-12-19,36,30,23,32,27,21,100,85,69,29.93,29.81,29.69,10,3,0,39,19,72,1.03,6,Fog-Snow,29
2012-12-20,27,20,13,21,15,9,96,80,63,30.30,30.08,29.88,10,5,2,36,17,44,T,2,Snow,315
2012-12-21,30,20,9,19,13,6,92,77,62,30.33,30.27,30.18,10,10,9,12,5,14,0.00,0,Snow,217
2012-12-22,38,25,11,26,18,9,96,80,64,30.15,30.05,29.97,10,9,6,17,7,22,0.00,0,,293
2012-12-23,19,12,5,13,9,4,100,88,76,30.13,30.07,30.02,10,7,5,18,7,23,0.00,0,,342
2012-12-24,15,10,4,10,6,1,88,79,70,30.29,30.18,30.04,10,10,9,21,11,25,0.00,3,,14
2012-12-25,14,9,3,9,3,-1,87,77,67,30.52,30.43,30.28,10,10,10,22,14,25,0.00,4,,5
2012-12-26,16,6,-4,8,2,-6,95,81,67,30.42,30.28,30.12,10,10,10,14,5,17,0.00,1,,81
2012-12-27,22,17,12,18,16,8,92,88,84,30.09,29.96,29.85,10,4,0,16,8,22,0.02,8,Fog-Snow,104
2012-12-28,18,10,1,16,9,-1,92,83,74,30.21,30.10,29.95,10,7,3,17,11,22,T,5,Snow,316
2012-12-29,27,14,0,19,9,-1,95,82,68,30.32,30.26,30.18,10,10,9,13,6,17,0.00,0,,252
2012-12-30,33,23,12,22,17,10,84,73,61,30.25,30.11,30.02,10,10,10,17,9,24,0.00,0,,219
2012-12-31,23,18,12,18,17,11,96,87,77,30.30,30.17,30.08,10,4,0,20,12,22,0.11,7,Fog-Snow,24